Weather History for Afton Municipal Airport, WY

Change the Weather History Date:

Wednesday, July 23, 2014

  Actual Average Record
Temperature  
Mean Temperature 66 °F -  
Max Temperature 89 °F 81 °F 89 °F (2014)
Min Temperature 42 °F 43 °F 42 °F (2014)
Growing Degree Days 16 (Base 50)    
Moisture  
Dew Point 38 °F    
Average Humidity 39    
Maximum Humidity 81    
Minimum Humidity 13    
Precipitation  
Precipitation 0.00 in - - ()
Sea Level Pressure  
Sea Level Pressure 30.24 in    
Wind  
Wind Speed 3 mph (SSW)    
Max Wind Speed 17 mph    
Max Gust Speed 26 mph    
Visibility 10 miles    
Events      
Averages and records for this station are not official NWS values.
T = Trace of Precipitation, MM = Missing Value Source: NWS Daily Summary

Daily Weather History Graph

Daily Weather History Graph

Search for Another Location

Airport:

Trip Planner

Search our weather history database for the weather conditions in past years. The results will help you decide how hot, cold, wet, or windy it might be!

Date:

Astronomy

Jul. 23, 2014 Rise Set
Actual Time 6:06 AM MDT 8:53 PM MDT
Civil Twilight 5:33 AM MDT 9:26 PM MDT
Nautical Twilight 4:51 AM MDT 10:07 PM MDT
Astronomical Twilight 4:03 AM MDT 10:55 PM MDT
Moon 3:28 AM MDT (7/23) 6:24 PM MDT (7/23)
Length of Visible Light 15h 52m
Length of Day
14h 47m
Waning Crescent, 9% of the Moon is Illuminated
Jul 23
Waning Crescent
Jul 26
New
Aug 3
First Quarter
Aug 10
Full
Aug 17
Last Quarter

Hourly Weather History & Observations

Time (MDT) Temp. Dew Point Humidity Pressure Visibility Wind Dir Wind Speed Gust Speed Precip Events Conditions
12:35 AM 57.2 °F 37.4 °F 48% 30.31 in 10.0 mi Calm Calm - N/A   Clear
12:55 AM 53.6 °F 41.0 °F 62% 30.30 in 10.0 mi Calm Calm - N/A   Clear
1:15 AM 53.6 °F 41.0 °F 62% 30.30 in 10.0 mi South 3.5 mph - N/A   Clear
1:39 AM 50.0 °F 41.0 °F 71% 30.30 in 10.0 mi South 4.6 mph - N/A   Clear
1:55 AM 53.6 °F 37.4 °F 54% 30.29 in 10.0 mi South 4.6 mph - N/A   Clear
2:15 AM 51.8 °F 37.4 °F 58% 30.29 in 10.0 mi SSE 3.5 mph - N/A   Clear
2:35 AM 51.8 °F 37.4 °F 58% 30.29 in 10.0 mi Calm Calm - N/A   Clear
2:55 AM 51.8 °F 37.4 °F 58% 30.29 in 10.0 mi Calm Calm - N/A   Clear
3:15 AM 50.0 °F 37.4 °F 62% 30.29 in 10.0 mi South 5.8 mph - N/A   Clear
3:35 AM 51.8 °F 35.6 °F 54% 30.28 in 10.0 mi SSW 3.5 mph - N/A   Clear
3:55 AM 50.0 °F 37.4 °F 62% 30.28 in 10.0 mi Calm Calm - N/A   Clear
4:15 AM 44.6 °F 37.4 °F 76% 30.28 in 10.0 mi Calm Calm - N/A   Clear
4:35 AM 46.4 °F 37.4 °F 71% 30.28 in 10.0 mi Calm Calm - N/A   Clear
4:55 AM 46.4 °F 37.4 °F 71% 30.27 in 10.0 mi Calm Calm - N/A   Clear
5:15 AM 44.6 °F 37.4 °F 76% 30.28 in 10.0 mi Calm Calm - N/A   Clear
5:35 AM 44.6 °F 35.6 °F 71% 30.29 in 10.0 mi Calm Calm - N/A   Clear
5:55 AM 46.4 °F 37.4 °F 71% 30.29 in 10.0 mi Calm Calm - N/A   Clear
6:15 AM 42.8 °F 37.4 °F 81% 30.29 in 10.0 mi Calm Calm - N/A   Clear
6:35 AM 44.6 °F 37.4 °F 76% 30.30 in 10.0 mi Calm Calm - N/A   Clear
6:55 AM 44.6 °F 37.4 °F 76% 30.30 in 10.0 mi Calm Calm - N/A   Clear
7:15 AM 44.6 °F 37.4 °F 76% 30.30 in 10.0 mi Calm Calm - N/A   Clear
7:35 AM 51.8 °F 37.4 °F 58% 30.30 in 10.0 mi Calm Calm - N/A   Clear
7:55 AM 51.8 °F 39.2 °F 62% 30.31 in 10.0 mi Calm Calm - N/A   Clear
8:15 AM 53.6 °F 41.0 °F 62% 30.31 in 10.0 mi Calm Calm - N/A   Clear
8:35 AM 57.2 °F 41.0 °F 55% 30.32 in 10.0 mi Calm Calm - N/A   Clear
8:55 AM 59.0 °F 39.2 °F 48% 30.32 in 10.0 mi Calm Calm - N/A   Clear
9:15 AM 60.8 °F 41.0 °F 48% 30.32 in 10.0 mi Calm Calm - N/A   Clear
9:35 AM 62.6 °F 42.8 °F 48% 30.31 in 10.0 mi Calm Calm - N/A   Clear
9:55 AM 62.6 °F 42.8 °F 48% 30.31 in 10.0 mi Calm Calm - N/A   Clear
10:15 AM 68.0 °F 44.6 °F 43% 30.31 in 10.0 mi Calm Calm - N/A   Clear
10:35 AM 71.6 °F 44.6 °F 38% 30.30 in 10.0 mi Calm Calm - N/A   Clear
10:55 AM 75.2 °F 48.2 °F 38% 30.29 in 10.0 mi Calm Calm - N/A   Clear
11:15 AM 78.8 °F 41.0 °F 26% 30.28 in 10.0 mi Calm Calm - N/A   Clear
11:35 AM 82.4 °F 35.6 °F 19% 30.28 in 10.0 mi Calm Calm - N/A   Clear
11:55 AM 84.2 °F 33.8 °F 16% 30.28 in 10.0 mi Calm Calm - N/A   Clear
12:15 PM 82.4 °F 32.0 °F 16% 30.28 in 10.0 mi WNW 4.6 mph - N/A   Clear
12:35 PM 86.0 °F 33.8 °F 15% 30.27 in 10.0 mi Calm Calm - N/A   Clear
12:55 PM 86.0 °F 32.0 °F 14% 30.26 in 10.0 mi SSE 10.4 mph 16.1 mph N/A   Clear
1:15 PM 86.0 °F 32.0 °F 14% 30.26 in 10.0 mi South 12.7 mph 23.0 mph N/A   Clear
1:35 PM 86.0 °F 32.0 °F 14% 30.26 in 10.0 mi WSW 6.9 mph - N/A   Clear
1:55 PM 87.8 °F 33.8 °F 15% 30.25 in 10.0 mi South 10.4 mph - N/A   Clear
2:15 PM 87.8 °F 35.6 °F 16% 30.24 in 10.0 mi SSW 12.7 mph 17.3 mph N/A   Clear
2:35 PM 87.8 °F 35.6 °F 16% 30.24 in 10.0 mi SSW 9.2 mph - N/A   Clear
2:55 PM 89.6 °F 35.6 °F 15% 30.23 in 10.0 mi South 12.7 mph 20.7 mph N/A   Clear
3:15 PM 89.6 °F 37.4 °F 16% 30.22 in 10.0 mi SW 13.8 mph 23.0 mph N/A   Clear
3:35 PM 89.6 °F 35.6 °F 15% 30.22 in 10.0 mi WSW 16.1 mph 24.2 mph N/A   Clear
3:55 PM 89.6 °F 35.6 °F 15% 30.20 in 10.0 mi SW 12.7 mph 18.4 mph N/A   Clear
4:15 PM 89.6 °F 32.0 °F 13% 30.20 in 10.0 mi SSW 16.1 mph 23.0 mph N/A   Clear
4:35 PM 89.6 °F 35.6 °F 15% 30.20 in 10.0 mi SW 12.7 mph 21.9 mph N/A   Clear
4:55 PM 89.6 °F 33.8 °F 14% 30.19 in 10.0 mi SW 15.0 mph 23.0 mph N/A   Clear
5:15 PM 89.6 °F 33.8 °F 14% 30.19 in 10.0 mi SW 17.3 mph 21.9 mph N/A   Clear
5:35 PM 87.8 °F 32.0 °F 14% 30.18 in 10.0 mi SW 10.4 mph 16.1 mph N/A   Clear
5:55 PM 87.8 °F 32.0 °F 14% 30.18 in 10.0 mi SW 13.8 mph 20.7 mph N/A   Clear
6:15 PM 87.8 °F 33.8 °F 15% 30.17 in 10.0 mi SW 10.4 mph 17.3 mph N/A   Clear
6:35 PM 87.8 °F 33.8 °F 15% 30.17 in 10.0 mi SW 11.5 mph 17.3 mph N/A   Clear
6:55 PM 87.8 °F 33.8 °F 15% 30.16 in 10.0 mi SW 8.1 mph 17.3 mph N/A   Clear
7:35 PM 84.2 °F 39.2 °F 20% 30.15 in 10.0 mi SW 6.9 mph - N/A   Clear
8:15 PM 80.6 °F 42.8 °F 26% 30.15 in 10.0 mi SSE 5.8 mph - N/A   Clear
8:35 PM 80.6 °F 39.2 °F 23% 30.14 in 10.0 mi SSE 5.8 mph - N/A   Clear
8:55 PM 78.8 °F 37.4 °F 23% 30.14 in 10.0 mi SSE 6.9 mph - N/A   Clear
9:15 PM 77.0 °F 37.4 °F 24% 30.13 in 10.0 mi ESE 3.5 mph - N/A   Clear
9:35 PM 71.6 °F 41.0 °F 33% 30.13 in 10.0 mi Calm Calm - N/A   Clear
9:55 PM 69.8 °F 39.2 °F 33% 30.13 in 10.0 mi Calm Calm - N/A   Clear
10:15 PM 69.8 °F 41.0 °F 35% 30.12 in 10.0 mi SW 3.5 mph - N/A   Clear
10:35 PM 68.0 °F 42.8 °F 40% 30.12 in 10.0 mi WSW 4.6 mph - N/A   Clear
10:55 PM 66.2 °F 42.8 °F 43% 30.12 in 10.0 mi Calm Calm - N/A   Clear
11:15 PM 64.4 °F 42.8 °F 45% 30.12 in 10.0 mi Calm Calm - N/A   Clear
11:35 PM 73.4 °F 41.0 °F 31% 30.14 in 10.0 mi South 15.0 mph 23.0 mph N/A   Clear
11:55 PM 75.2 °F 41.0 °F 29% 30.14 in 10.0 mi SSE 15.0 mph 26.5 mph N/A   Clear